createdAt,value
2022-08-19T00:02:00.990Z,99584.81
2022-08-19T00:04:33.948Z,99558.66
2022-08-19T00:07:01.660Z,99567.03
2022-08-19T00:09:29.787Z,99593.03
2022-08-19T00:11:57.680Z,99596.31
2022-08-19T00:14:26.750Z,99566.97
2022-08-19T00:16:55.561Z,99559.56
2022-08-19T00:19:23.600Z,99546.38
2022-08-19T00:21:51.284Z,99564.78
2022-08-19T00:24:18.201Z,99569.56
2022-08-19T00:26:46.716Z,99551.56
2022-08-19T00:29:16.300Z,99546.59
2022-08-19T00:31:44.090Z,99576.84
2022-08-19T00:34:13.020Z,99564.25
2022-08-19T00:36:41.461Z,99572.47
2022-08-19T00:39:08.628Z,99506.34
2022-08-19T00:41:35.600Z,99568.09
2022-08-19T00:44:17.009Z,99566.63
2022-08-19T00:46:55.455Z,99539.25
2022-08-19T00:49:35.055Z,99556.59
2022-08-19T00:52:07.735Z,99549.63
2022-08-19T00:54:34.899Z,99549.63
2022-08-19T00:57:07.175Z,99531.53
2022-08-19T01:00:01.923Z,99552.31
2022-08-19T01:02:24.695Z,99532.22
2022-08-19T01:04:51.469Z,99546.44
2022-08-19T01:07:19.679Z,99535.00
2022-08-19T01:09:47.389Z,99548.59
2022-08-19T01:12:14.699Z,99509.50
2022-08-19T01:14:41.931Z,99546.16
2022-08-19T01:17:11.068Z,99546.00
2022-08-19T01:19:43.411Z,99524.06
2022-08-19T01:22:17.083Z,99539.22
2022-08-19T01:24:45.933Z,99545.72
2022-08-19T01:27:17.900Z,99517.84
2022-08-19T01:29:46.258Z,99537.69
2022-08-19T01:32:32.157Z,99548.81
2022-08-19T01:35:02.712Z,99541.34
2022-08-19T01:37:31.593Z,99538.00
2022-08-19T01:39:58.773Z,99528.72
2022-08-19T01:42:29.014Z,99522.94
2022-08-19T01:44:57.593Z,99552.00
2022-08-19T01:47:24.335Z,99528.81
2022-08-19T01:49:51.231Z,99532.16
2022-08-19T01:52:18.018Z,99529.50
2022-08-19T01:54:44.943Z,99538.25
2022-08-19T01:57:15.284Z,99534.41
2022-08-19T01:59:44.923Z,99500.31
2022-08-19T02:02:11.611Z,99540.25
2022-08-19T02:04:39.521Z,99496.44
2022-08-19T02:07:08.792Z,99498.72
2022-08-19T02:09:36.535Z,99510.94
2022-08-19T02:12:04.650Z,99494.50
2022-08-19T02:14:31.471Z,99513.34
2022-08-19T02:16:58.232Z,99511.09
2022-08-19T02:19:25.031Z,99509.94
2022-08-19T02:21:51.851Z,99508.44
2022-08-19T02:24:18.718Z,99486.38
2022-08-19T02:26:45.492Z,99485.94
2022-08-19T02:29:12.352Z,99495.94
2022-08-19T02:31:39.089Z,99517.47
2022-08-19T02:34:05.976Z,99507.06
2022-08-19T02:36:32.778Z,99492.88
2022-08-19T02:39:00.006Z,99467.94
2022-08-19T02:41:33.539Z,99477.09
2022-08-19T02:44:28.860Z,99499.06
2022-08-19T02:46:51.863Z,99482.69
2022-08-19T02:49:20.842Z,99512.97
2022-08-19T02:51:48.411Z,99494.22
2022-08-19T02:54:15.888Z,99510.84
2022-08-19T02:56:44.763Z,99525.28
2022-08-19T02:59:12.933Z,99540.78
2022-08-19T03:01:42.317Z,99534.59
2022-08-19T03:04:13.423Z,99539.81
2022-08-19T03:06:45.499Z,99536.16
2022-08-19T03:09:13.809Z,99509.03
2022-08-19T03:11:41.064Z,99533.81
2022-08-19T03:14:09.808Z,99428.06
2022-08-19T03:16:45.666Z,99533.66
2022-08-19T03:19:13.431Z,99453.44
2022-08-19T03:21:40.281Z,99528.13
2022-08-19T03:24:09.647Z,99531.53
2022-08-19T03:26:41.405Z,99513.81
2022-08-19T03:29:08.923Z,99526.44
2022-08-19T03:31:44.156Z,99537.88
2022-08-19T03:34:23.079Z,99554.19
2022-08-19T03:36:49.913Z,99548.69
2022-08-19T03:39:17.558Z,99551.50
2022-08-19T03:41:48.598Z,99553.72
2022-08-19T03:44:19.284Z,99551.16
2022-08-19T03:46:53.451Z,99530.59
2022-08-19T03:49:21.244Z,99546.63
2022-08-19T03:51:54.763Z,99506.50
2022-08-19T03:54:24.115Z,99518.50
2022-08-19T03:56:54.569Z,99521.22
2022-08-19T03:59:28.068Z,99546.00
2022-08-19T04:01:57.472Z,99543.88
2022-08-19T04:04:25.209Z,99555.44
2022-08-19T04:06:56.676Z,99560.34
2022-08-19T04:09:23.465Z,99552.56
2022-08-19T04:11:56.943Z,99558.34
2022-08-19T04:14:26.916Z,99556.19
2022-08-19T04:16:54.356Z,99560.13
2022-08-19T04:19:21.746Z,99546.03
2022-08-19T04:21:51.279Z,99562.78
2022-08-19T04:24:18.538Z,99552.06
2022-08-19T04:26:45.811Z,99544.19
2022-08-19T04:29:26.120Z,99554.06
2022-08-19T04:31:55.089Z,99568.09
2022-08-19T04:34:25.052Z,99570.25
2022-08-19T04:36:53.995Z,99580.53
2022-08-19T04:39:45.305Z,99581.03
2022-08-19T04:42:31.073Z,99580.19
2022-08-19T04:44:59.667Z,99586.66
2022-08-19T04:47:48.306Z,99596.81
2022-08-19T04:50:14.294Z,99590.28
2022-08-19T04:52:43.863Z,99576.97
2022-08-19T04:55:11.502Z,99592.84
2022-08-19T04:57:41.219Z,99570.81
2022-08-19T05:00:11.861Z,99582.38
2022-08-19T05:02:39.464Z,99615.50
2022-08-19T05:05:07.513Z,99588.88
2022-08-19T05:07:34.736Z,99611.91
2022-08-19T05:10:01.596Z,99606.25
2022-08-19T05:12:29.940Z,99600.28
2022-08-19T05:14:58.667Z,99616.84
2022-08-19T05:17:32.296Z,99591.47
2022-08-19T05:20:18.620Z,99597.75
2022-08-19T05:22:48.520Z,99607.72
2022-08-19T05:25:20.623Z,99583.38
2022-08-19T05:27:47.952Z,99612.66
2022-08-19T05:30:15.727Z,99608.63
2022-08-19T05:32:42.844Z,99599.25
2022-08-19T05:35:10.499Z,99597.56
2022-08-19T05:37:37.610Z,99597.88
2022-08-19T05:40:05.414Z,99618.38
2022-08-19T05:42:32.421Z,99613.19
2022-08-19T05:44:59.380Z,99626.88
2022-08-19T05:47:26.188Z,99592.88
2022-08-19T05:49:52.949Z,99595.81
2022-08-19T05:52:25.913Z,99595.53
2022-08-19T05:54:56.263Z,99617.97
2022-08-19T05:57:24.874Z,99619.69
2022-08-19T05:59:56.755Z,99599.53
2022-08-19T06:02:26.423Z,99600.22
2022-08-19T06:04:53.446Z,99603.94
2022-08-19T06:07:20.584Z,99610.03
2022-08-19T06:09:58.908Z,99629.91
2022-08-19T06:12:32.578Z,99599.59
2022-08-19T06:15:01.956Z,99605.28
2022-08-19T06:17:31.197Z,99617.38
2022-08-19T06:19:59.126Z,99620.75
2022-08-19T06:22:25.899Z,99597.13
2022-08-19T06:24:54.652Z,99578.56
2022-08-19T06:27:21.876Z,99604.56
2022-08-19T06:29:48.845Z,99585.81
2022-08-19T08:53:35.541Z,99587.63
2022-08-19T08:56:13.569Z,99594.38
2022-08-19T08:58:58.865Z,99590.38
2022-08-19T09:01:30.218Z,99597.63
2022-08-19T09:04:02.849Z,99585.50
2022-08-19T09:06:56.128Z,99582.66
2022-08-19T09:09:36.969Z,99566.69
2022-08-19T09:12:11.656Z,99599.81
2022-08-19T09:14:50.696Z,99595.88
2022-08-19T09:17:20.039Z,99566.56
2022-08-19T09:19:57.459Z,99549.91
2022-08-19T09:22:26.090Z,99577.13
2022-08-19T09:24:55.481Z,99567.78
2022-08-19T09:27:41.918Z,99554.50
2022-08-19T09:30:17.584Z,99575.75
2022-08-19T09:32:45.080Z,99567.94
2022-08-19T09:35:13.690Z,99581.16
2022-08-19T09:37:40.913Z,99570.06
2022-08-19T09:40:09.213Z,99576.38
2022-08-19T09:42:38.779Z,99563.22
2022-08-19T09:45:18.221Z,99592.75
2022-08-19T09:47:45.059Z,99572.50
2022-08-19T09:50:16.314Z,99562.59
2022-08-19T09:52:55.640Z,99586.16
2022-08-19T09:55:31.857Z,99574.03
2022-08-19T09:58:01.891Z,99559.13
2022-08-19T10:00:28.807Z,99543.75
2022-08-19T10:02:55.553Z,99543.97
2022-08-19T10:05:42.320Z,99524.97
2022-08-19T10:08:13.067Z,99516.91
2022-08-19T10:10:43.275Z,99509.94
2022-08-19T10:13:10.024Z,99524.56
2022-08-19T10:15:47.359Z,99528.53
2022-08-19T10:18:18.820Z,99538.69
2022-08-19T10:20:51.748Z,99479.16
2022-08-19T10:23:21.714Z,99536.03
2022-08-19T10:25:49.023Z,99539.28
2022-08-19T10:28:16.202Z,99523.28
2022-08-19T10:30:47.209Z,99510.88
2022-08-19T10:33:15.025Z,99501.22
2022-08-19T10:35:56.226Z,99519.31
2022-08-19T10:38:31.717Z,99531.38
2022-08-19T10:41:07.728Z,99505.56
2022-08-19T10:43:38.308Z,99519.06
2022-08-19T10:46:13.824Z,99538.47
2022-08-19T10:48:44.401Z,99541.72
2022-08-19T10:51:30.518Z,99532.97
2022-08-19T10:53:57.734Z,99533.81
2022-08-19T10:56:42.940Z,99536.75
2022-08-19T10:59:10.129Z,99543.72
2022-08-19T11:01:37.087Z,99523.31
2022-08-19T11:04:05.258Z,99535.03
2022-08-19T11:06:35.546Z,99541.41
2022-08-19T11:09:02.260Z,99533.69
2022-08-19T11:11:29.611Z,99538.16
2022-08-19T11:13:56.657Z,99543.47
2022-08-19T11:16:26.889Z,99542.13
2022-08-19T11:18:56.264Z,99536.94
2022-08-19T11:21:35.019Z,99533.72
2022-08-19T11:24:06.834Z,99529.63
2022-08-19T11:26:35.687Z,99531.63
2022-08-19T11:29:04.029Z,99509.81
2022-08-19T11:31:33.156Z,99495.22
2022-08-19T11:34:02.702Z,99508.41
2022-08-19T11:36:30.223Z,99503.59
2022-08-19T11:38:57.090Z,99530.84
2022-08-19T11:41:24.920Z,99540.97
2022-08-19T11:43:55.148Z,99529.00
2022-08-19T11:46:23.715Z,99532.00
2022-08-19T11:48:50.843Z,99526.22
2022-08-19T11:51:25.750Z,99511.19
2022-08-19T11:53:57.523Z,99519.69
2022-08-19T11:56:26.067Z,99525.84
2022-08-19T11:58:53.403Z,99520.06
2022-08-19T12:01:23.085Z,99455.56
2022-08-19T12:03:52.265Z,99516.72
2022-08-19T12:06:26.629Z,99511.16
2022-08-19T12:08:53.425Z,99500.09
2022-08-19T12:11:20.360Z,99497.06
2022-08-19T12:13:48.383Z,99496.34
2022-08-19T12:16:19.328Z,99500.41
2022-08-19T12:18:51.947Z,99498.31
2022-08-19T12:21:22.657Z,99481.91
2022-08-19T12:23:55.504Z,99484.34
2022-08-19T12:26:23.512Z,99475.81
2022-08-19T12:28:50.224Z,99456.19
2022-08-19T12:31:17.464Z,99473.19
2022-08-19T12:33:44.433Z,99473.63
2022-08-19T12:36:13.216Z,99460.88
2022-08-19T12:38:40.569Z,99472.50
2022-08-19T12:41:10.147Z,99468.56
2022-08-19T12:43:38.824Z,99470.06
2022-08-19T12:46:06.534Z,99479.22
2022-08-19T12:48:36.066Z,99452.63
2022-08-19T12:51:13.701Z,99456.19
2022-08-19T12:53:41.602Z,99435.41
2022-08-19T12:56:12.621Z,99449.81
2022-08-19T12:58:40.196Z,99452.75
2022-08-19T13:01:09.032Z,99442.50
2022-08-19T13:03:40.344Z,99427.63
2022-08-19T13:06:08.652Z,99452.50
2022-08-19T13:08:36.327Z,99447.19
2022-08-19T13:11:18.863Z,99431.94
2022-08-19T13:13:48.432Z,99437.47
2022-08-19T13:16:15.797Z,99448.28
2022-08-19T13:18:45.070Z,99425.28
2022-08-19T13:21:14.881Z,99435.47
2022-08-19T13:23:42.721Z,99432.50
2022-08-19T13:26:11.665Z,99429.56
2022-08-19T13:28:57.251Z,99444.59
2022-08-19T13:31:44.163Z,99430.00
2022-08-19T13:34:11.587Z,99434.16
2022-08-19T13:36:39.584Z,99439.00
2022-08-19T13:39:08.731Z,99444.16
2022-08-19T13:41:37.171Z,99439.59
2022-08-19T13:44:04.687Z,99437.19
2022-08-19T13:46:31.735Z,99433.66
2022-08-19T13:48:58.626Z,99418.50
2022-08-19T13:51:25.484Z,99411.16
2022-08-19T13:53:54.073Z,99417.19
2022-08-19T13:56:25.567Z,99406.78
2022-08-19T13:58:53.114Z,99392.13
2022-08-19T14:01:22.105Z,99403.34
2022-08-19T14:03:51.708Z,99398.81
2022-08-19T14:06:18.625Z,99397.50
2022-08-19T14:08:46.508Z,99380.78
2022-08-19T14:11:13.413Z,99415.78
2022-08-19T14:13:40.441Z,99414.28
2022-08-19T14:16:09.764Z,99410.56
2022-08-19T14:18:36.829Z,99428.09
2022-08-19T14:21:05.677Z,99403.97
2022-08-19T14:23:33.965Z,99419.00
2022-08-19T14:26:15.821Z,99415.13
2022-08-19T14:28:43.516Z,99420.75
2022-08-19T14:31:15.932Z,99445.63
2022-08-19T14:33:43.413Z,99433.22
2022-08-19T14:36:10.146Z,99422.03
2022-08-19T14:38:37.699Z,99421.41
2022-08-19T14:41:17.819Z,99432.41
2022-08-19T14:43:49.294Z,99438.22
2022-08-19T14:46:17.956Z,99456.53
2022-08-19T14:48:45.096Z,99451.91
2022-08-19T14:51:11.916Z,99450.75
2022-08-19T14:53:39.383Z,99467.44
2022-08-19T14:56:11.410Z,99487.91
2022-08-19T14:58:39.501Z,99480.97
2022-08-19T15:01:06.358Z,99463.34
2022-08-19T15:03:33.257Z,99458.00
2022-08-19T15:06:02.644Z,99452.84
2022-08-19T15:08:31.341Z,99485.38
2022-08-19T15:10:59.757Z,99477.38
2022-08-19T15:13:28.516Z,99471.66
2022-08-19T15:15:55.589Z,99418.25
2022-08-19T15:18:22.952Z,99486.13
2022-08-19T15:20:50.533Z,99468.78
2022-08-19T15:23:20.356Z,99482.06
2022-08-19T15:25:47.161Z,99463.50
2022-08-19T15:28:16.400Z,99475.13
2022-08-19T15:30:44.708Z,99446.56
2022-08-19T15:33:15.325Z,99464.28
2022-08-19T15:35:43.591Z,99486.28
2022-08-19T15:38:11.209Z,99468.91
2022-08-19T15:40:37.944Z,99434.22
2022-08-19T15:43:04.809Z,99449.59
2022-08-19T15:45:34.795Z,99461.72
2022-08-19T15:48:04.085Z,99473.69
2022-08-19T15:50:35.895Z,99467.84
2022-08-19T15:53:06.973Z,99457.31
2022-08-19T15:55:36.890Z,99446.34
2022-08-19T15:58:31.875Z,99444.06
2022-08-19T16:01:23.825Z,99432.38
2022-08-19T16:04:14.866Z,99424.72
2022-08-19T16:06:45.807Z,99423.75
2022-08-19T16:09:13.229Z,99410.97
2022-08-19T16:11:45.432Z,99369.44
2022-08-19T16:14:17.323Z,99415.00
2022-08-19T16:16:46.980Z,99427.91
2022-08-19T16:19:16.693Z,99429.88
2022-08-19T16:21:45.339Z,99420.72
2022-08-19T16:24:14.260Z,99436.00
2022-08-19T16:26:43.328Z,99439.19
2022-08-19T16:29:12.124Z,99435.44
2022-08-19T16:31:43.483Z,99439.00
2022-08-19T16:34:11.346Z,99431.13
2022-08-19T16:36:41.820Z,99416.06
2022-08-19T16:39:11.438Z,99427.34
2022-08-19T16:41:39.673Z,99439.91
2022-08-19T16:44:07.794Z,99441.56
2022-08-19T16:46:34.860Z,99404.81
2022-08-19T16:49:01.613Z,99399.59
2022-08-19T16:51:28.587Z,99442.84
2022-08-19T16:53:55.772Z,99421.75
2022-08-19T16:56:22.591Z,99408.78
2022-08-19T16:58:50.560Z,99422.19
2022-08-19T17:01:18.525Z,99345.88
2022-08-19T17:03:45.964Z,99430.56
2022-08-19T17:06:20.331Z,99435.38
2022-08-19T17:08:50.379Z,99435.97
2022-08-19T17:11:19.324Z,99427.00
2022-08-19T17:13:47.723Z,99438.09
2022-08-19T17:16:15.831Z,99444.53
2022-08-19T17:18:42.691Z,99464.38
2022-08-19T17:21:09.714Z,99447.66
2022-08-19T17:23:42.999Z,99466.06
2022-08-19T17:26:17.097Z,99478.81
2022-08-19T17:28:49.910Z,99495.94
2022-08-19T17:31:19.071Z,99451.72
2022-08-19T17:33:48.453Z,99518.06
2022-08-19T17:36:23.568Z,99519.06
2022-08-19T17:38:51.608Z,99514.56
2022-08-19T17:41:19.134Z,99519.19
2022-08-19T17:43:46.171Z,99508.91
2022-08-19T17:46:18.747Z,99520.41
2022-08-19T17:48:52.453Z,99508.47
2022-08-19T17:51:35.795Z,99504.72
2022-08-19T17:54:04.414Z,99492.31
2022-08-19T17:56:31.118Z,99488.91
2022-08-19T17:59:01.504Z,99486.31
2022-08-19T18:01:39.049Z,99526.31
2022-08-19T18:04:18.942Z,99542.50
2022-08-19T18:06:53.319Z,99770.38
2022-08-19T18:09:26.203Z,99818.91
2022-08-19T18:11:56.935Z,99763.38
2022-08-19T18:14:33.443Z,99792.06
